Airfield :
LOGIN :

Register | Disclaimer

   EN    FR    IT 

 










Legend :    VFR   Marginal VFR   IFR   Intensive IFR   Very Intensive IFR
Visi :
Ceiling :
>= 8 km
>= 3000ft
5 to 8 km
1000 to 3000 ft
1500m to 5 km
500 to 1000 ft
800 to 1500m
200 to 500 ft
< 800m
< 200 ft
Symbols :   Thunderstorms  Fog  Heavy snow  Heavy precipitations  Wind > 20 kt
SIGMETs :     Misc.  Thunderstorms  Icing  Turbulence  Mountain Waves  Volcanic Ashes







- Airport Elevation : 326 ft
- IATA code : LCG
- Download approach charts


LECO - A Coruna

CURRENT METAR :
  • 261200Z 18007KT 140V210 9999 BKN038 11/06 Q1008 NOSIG

EXPIRED METARs :
  • 261130Z 19016KT 9999 SCT034 SCT038 12/06 Q1008 NOSIG
  • 261100Z 18010KT 140V210 9999 SCT028 SCT038 11/06 Q1008 NOSIG
  • 261030Z 19014KT 120V210 9999 SCT028 SCT038 10/06 Q1008 NOSIG
  • 261000Z 18010KT 150V210 9999 SCT030 11/07 Q1007 NOSIG

TAF TAF LECO
Valid from the 26 at 09:00 until the 27 at 09:00 UTC


260800Z 2609/2709 17009KT 9999 SCT030 BKN045 TX15/2615Z TN07/2704Z
PROB40
TEMPO 2609/2615 14015G28KT
PROB40
TEMPO 2609/2618 -RA SHRA SCT025TCU
PROB40
TEMPO 2618/2623 3000 SHRA RA SCT025TCU
PROB30
TEMPO 2615/2622 TSRA BKN025CB
TEMPO 2706/2709 19015G25KT
No reported NOTAMs for that airfield.
1 SIGMET reported for the Madrid FIR (LECM) :
 
Severe turbulence
LECM SIGMET 5 VALID 261200/261600 LEVA
LECM MADRID FIR/UIR SEV TURB FCST WI N4230 W01130 - N45 W010 - N4340 W00150 - N4330 W00810 - N42 W00930 FL230/300 MOV N 10KT WKN=



MET'MAP, your aeronautical weather chart ! - Copyright ORBIFLY December 2007 - Disclaimer

ORBIFLY MET'MAP TEAM :

Programming & Development : Alexandra Zaïnal
Concept & Development : Baudouin d'Aumeries
Co-Development & Prog : Marc-Olivier Méhu
Technical & hardware support : Manuel Goepfert

Contact : metmap@orbifly.com




SOURCES & CREDITS :

   NOAA